< < Back
Terminal Aerodrome Forecast


Current Version              Previous Versions:   1  2  3  4  5  6  7  8  9  

Terminal Aerodrome Forecast

853
FTUS44 KOHX 181700
TAFBNA
TAF
KBNA 181722Z 1818/1918 15005KT P6SM BKN060
     FM190000 04007KT P6SM SCT050 SCT250
     FM190600 36005KT P6SM FEW250
     FM191400 03013KT P6SM SKC=

Latest METAR

020
SAUS70 KWBC 182056
MTRBNA
METAR KBNA 182053Z 04006KT 10SM FEW090 OVC250 20/08 A3020 RMK AO2 SLP224
T02000078 58026


USA.gov is the U.S. government's official web portal to all federal, state and local government web resources and services.